Time;durP1;ratioP1;P1;durP2;ratioP2;P2;SDS_P1;SDS_P2;PMS_P1;PMS_P2;Temp;Humidity;BMP_temperature;BMP_pressure;BME280_temperature;BME280_humidity;BME280_pressure;Samples;Min_cycle;Max_cycle;Signal;HPM_P1;HPM_P2
2020/12/10 00:00:33;;;;;;;15.97;5.83;;;;;;;-4.69;65.63;100553.55;1712315;81;21168;-50
2020/12/10 00:03:01;;;;;;;14.53;4.90;;;;;;;-4.69;65.65;100552.23;1710405;81;21179;-52
2020/12/10 00:05:28;;;;;;;13.43;4.57;;;;;;;-4.69;65.59;100550.03;1709118;81;21160;-51
2020/12/10 00:07:57;;;;;;;14.23;5.07;;;;;;;-4.72;65.50;100555.20;1715451;81;22686;-51
2020/12/10 00:10:24;;;;;;;14.93;4.93;;;;;;;-4.78;65.55;100555.05;1713784;81;21203;-49
2020/12/10 00:12:52;;;;;;;18.17;5.57;;;;;;;-4.83;65.59;100545.72;1709676;81;22624;-52
2020/12/10 00:15:19;;;;;;;11.93;4.03;;;;;;;-4.88;65.65;100536.85;1712630;81;21171;-51
2020/12/10 00:17:46;;;;;;;19.30;6.60;;;;;;;-4.93;65.70;100545.02;1715826;81;21191;-51
2020/12/10 00:20:14;;;;;;;16.53;6.43;;;;;;;-4.97;65.77;100534.88;1712216;81;23193;-55
2020/12/10 00:22:41;;;;;;;16.37;4.67;;;;;;;-5.01;65.80;100533.42;1719312;80;21207;-54
2020/12/10 00:25:08;;;;;;;14.27;4.93;;;;;;;-5.04;65.86;100529.42;1719481;80;21230;-48
2020/12/10 00:27:36;;;;;;;11.40;4.37;;;;;;;-5.06;65.92;100533.73;1722685;80;21582;-53
2020/12/10 00:30:09;;;;;;;17.93;5.37;;;;;;;-5.09;65.95;100533.22;1715705;80;21191;-51
2020/12/10 00:32:37;;;;;;;18.37;4.77;;;;;;;-5.14;66.03;100536.16;1719980;80;21405;-50
2020/12/10 00:35:06;;;;;;;16.53;6.53;;;;;;;-5.17;66.09;100537.38;1719877;80;21226;-49
2020/12/10 00:37:34;;;;;;;16.57;6.27;;;;;;;-5.21;66.11;100530.71;1716914;80;21255;-53
2020/12/10 00:40:02;;;;;;;13.17;4.10;;;;;;;-5.28;66.20;100527.46;1722387;80;21232;-49
2020/12/10 00:42:29;;;;;;;18.40;4.97;;;;;;;-5.34;66.35;100525.11;1723654;80;21120;-47
2020/12/10 00:44:57;;;;;;;23.50;5.20;;;;;;;-5.40;66.44;100513.57;1717617;80;21633;-53
2020/12/10 00:47:24;;;;;;;14.73;4.27;;;;;;;-5.43;66.55;100510.42;1721374;80;21570;-51
2020/12/10 00:49:53;;;;;;;17.13;3.07;;;;;;;-5.47;66.62;100512.52;1687900;81;21191;-51
2020/12/10 00:52:25;;;;;;;14.00;3.80;;;;;;;-5.47;66.69;100512.94;1715098;80;21269;-52
2020/12/10 00:54:54;;;;;;;12.55;4.60;;;;;;;-5.45;66.73;100515.19;1721190;80;21606;-54
2020/12/10 00:57:23;;;;;;;11.90;4.27;;;;;;;-5.45;66.77;100515.19;1719050;80;21550;-54
2020/12/10 00:59:51;;;;;;;15.03;4.00;;;;;;;-5.45;66.78;100517.81;1716907;80;21247;-50
2020/12/10 01:02:18;;;;;;;12.03;3.93;;;;;;;-5.49;66.80;100520.77;1718062;80;21199;-49
2020/12/10 01:04:45;;;;;;;11.70;4.53;;;;;;;-5.49;66.85;100521.18;1720001;80;21191;-50
2020/12/10 01:07:14;;;;;;;13.90;4.30;;;;;;;-5.50;66.91;100532.09;1722964;80;21108;-55
2020/12/10 01:09:41;;;;;;;9.93;3.93;;;;;;;-5.52;66.95;100516.73;1719252;80;21441;-53
2020/12/10 01:12:08;;;;;;;10.83;3.53;;;;;;;-5.53;67.00;100521.50;1722720;80;21159;-55
2020/12/10 01:14:35;;;;;;;15.93;4.40;;;;;;;-5.54;67.04;100511.89;1720430;80;21161;-49
2020/12/10 01:17:03;;;;;;;11.90;4.03;;;;;;;-5.57;67.12;100509.17;1723327;80;21124;-49
2020/12/10 01:19:30;;;;;;;10.53;4.03;;;;;;;-5.56;67.18;100510.06;1718549;80;21152;-50
2020/12/10 01:21:57;;;;;;;16.97;4.60;;;;;;;-5.56;67.22;100508.33;1711059;80;21551;-49
2020/12/10 01:24:25;;;;;;;15.83;4.30;;;;;;;-5.58;67.21;100510.01;1704248;81;21180;-55
2020/12/10 01:26:52;;;;;;;14.40;4.33;;;;;;;-5.59;67.30;100504.30;1714665;81;21117;-50
2020/12/10 01:29:21;;;;;;;13.67;5.60;;;;;;;-5.58;67.32;100505.19;1717838;81;22195;-52
2020/12/10 01:31:49;;;;;;;12.47;3.63;;;;;;;-5.60;67.36;100499.89;1714357;81;21116;-50
2020/12/10 01:34:17;;;;;;;9.37;3.33;;;;;;;-5.60;67.36;100504.24;1708946;81;21389;-49
2020/12/10 01:36:45;;;;;;;14.50;3.57;;;;;;;-5.62;67.41;100503.34;1713766;81;21193;-49
2020/12/10 01:39:12;;;;;;;9.83;3.23;;;;;;;-5.63;67.46;100510.31;1713557;81;21209;-54
2020/12/10 01:41:41;;;;;;;10.83;4.27;;;;;;;-5.63;67.50;100521.23;1707099;81;21561;-49
2020/12/10 01:44:11;;;;;;;13.87;4.63;;;;;;;-5.65;67.55;100518.55;1710368;81;21231;-54
2020/12/10 01:46:41;;;;;;;12.77;3.67;;;;;;;-5.66;67.58;100514.15;1714020;81;21758;-49
2020/12/10 01:49:09;;;;;;;13.80;3.53;;;;;;;-5.68;67.62;100513.20;1713463;81;21518;-53
2020/12/10 01:51:37;;;;;;;14.23;5.20;;;;;;;-5.67;67.65;100515.41;1657208;84;21155;-50
2020/12/10 01:54:05;;;;;;;13.83;4.60;;;;;;;-5.68;67.67;100519.77;1672359;83;22590;-52
2020/12/10 01:56:32;;;;;;;12.63;4.03;;;;;;;-5.69;67.72;100520.61;1675347;83;21252;-51
2020/12/10 01:59:00;;;;;;;7.53;3.00;;;;;;;-5.68;67.73;100512.31;1670696;83;23421;-47
2020/12/10 02:01:28;;;;;;;7.70;2.70;;;;;;;-5.69;67.80;100511.42;1670944;83;21223;-48
2020/12/10 02:03:57;;;;;;;11.10;4.13;;;;;;;-5.70;67.79;100507.06;1669289;83;21212;-53
2020/12/10 02:06:25;;;;;;;8.33;2.70;;;;;;;-5.72;67.84;100503.50;1671036;83;21219;-53
2020/12/10 02:08:52;;;;;;;11.70;3.07;;;;;;;-5.73;67.85;100503.91;1671827;83;21120;-47
2020/12/10 02:11:19;;;;;;;8.40;2.43;;;;;;;-5.74;67.91;100503.44;1671741;83;21251;-50
2020/12/10 02:13:46;;;;;;;15.50;2.43;;;;;;;-5.74;67.94;100488.13;1670341;83;21854;-52
2020/12/10 02:16:13;;;;;;;10.27;2.10;;;;;;;-5.78;67.97;100482.31;1669605;83;21212;-47
2020/12/10 02:18:41;;;;;;;5.93;2.23;;;;;;;-5.79;68.00;100481.45;1672211;83;22008;-51
2020/12/10 02:21:11;;;;;;;6.37;2.57;;;;;;;-5.80;67.99;100482.72;1713783;81;21183;-49
2020/12/10 02:23:38;;;;;;;13.10;2.67;;;;;;;-5.82;68.03;100488.34;1693670;80;21199;-50
2020/12/10 02:26:05;;;;;;;11.17;2.73;;;;;;;-5.86;68.09;100479.48;1717077;80;21194;-50
2020/12/10 02:28:33;;;;;;;18.97;4.63;;;;;;;-5.85;68.11;100472.50;1714487;81;21204;-50
2020/12/10 02:31:00;;;;;;;6.60;1.83;;;;;;;-5.86;68.15;100472.92;1721510;80;21310;-48
2020/12/10 02:33:27;;;;;;;10.77;4.10;;;;;;;-5.87;68.14;100459.80;1715657;80;21257;-50
2020/12/10 02:35:55;;;;;;;11.30;3.10;;;;;;;-5.88;68.20;100465.50;1716046;80;22885;-53
2020/12/10 02:38:22;;;;;;;8.80;2.23;;;;;;;-5.89;68.20;100466.76;1718659;80;21187;-48
2020/12/10 02:40:49;;;;;;;5.40;2.37;;;;;;;-5.91;68.22;100458.84;1716003;80;21876;-50
2020/12/10 02:43:17;;;;;;;10.70;2.43;;;;;;;-5.92;68.27;100453.13;1721685;80;21112;-51
2020/12/10 02:45:46;;;;;;;9.40;2.93;;;;;;;-5.93;68.27;100455.28;1720459;80;21463;-50
2020/12/10 02:48:14;;;;;;;9.97;2.20;;;;;;;-5.93;68.31;100455.70;1718823;80;21205;-50
2020/12/10 02:50:41;;;;;;;7.17;3.17;;;;;;;-5.93;68.32;100459.64;1714999;80;21247;-51
2020/12/10 02:53:08;;;;;;;10.67;2.80;;;;;;;-5.92;68.34;100461.41;1720536;80;21195;-48
2020/12/10 02:55:35;;;;;;;11.10;3.10;;;;;;;-5.92;68.34;100456.17;1720804;80;21207;-50
2020/12/10 02:58:02;;;;;;;8.30;3.33;;;;;;;-5.93;68.38;100451.77;1716103;80;21192;-49
2020/12/10 03:00:30;;;;;;;8.80;2.70;;;;;;;-5.93;68.43;100456.59;1719405;80;21475;-49
2020/12/10 03:02:57;;;;;;;4.80;2.20;;;;;;;-5.92;68.43;100452.23;1718615;80;21194;-51
2020/12/10 03:05:25;;;;;;;7.20;2.17;;;;;;;-5.94;68.50;100451.30;1716288;80;21215;-50
2020/12/10 03:07:52;;;;;;;8.40;3.50;;;;;;;-5.93;68.52;100450.46;1727206;80;21215;-53
2020/12/10 03:10:19;;;;;;;8.50;2.27;;;;;;;-5.94;68.57;100453.92;1716129;80;22540;-52
2020/12/10 03:12:47;;;;;;;6.40;1.40;;;;;;;-5.93;68.67;100459.21;1719388;80;21290;-51
2020/12/10 03:15:14;;;;;;;7.40;3.03;;;;;;;-5.91;68.69;100448.36;1718990;80;21630;-52
2020/12/10 03:17:41;;;;;;;8.97;2.17;;;;;;;-5.91;68.71;100444.84;1719560;80;21629;-48
2020/12/10 03:20:08;;;;;;;7.47;2.17;;;;;;;-5.89;68.77;100454.54;1714914;80;21210;-52
2020/12/10 03:22:35;;;;;;;5.17;2.30;;;;;;;-5.88;68.83;100451.50;1720757;80;21182;-52
2020/12/10 03:25:03;;;;;;;9.80;3.13;;;;;;;-5.85;68.86;100447.17;1720566;80;22514;-51
2020/12/10 03:27:30;;;;;;;6.90;2.27;;;;;;;-5.81;68.89;100444.23;1724281;80;21254;-51
2020/12/10 03:29:57;;;;;;;8.60;2.23;;;;;;;-5.78;68.81;100448.23;1721702;80;21203;-50
2020/12/10 03:32:24;;;;;;;8.03;3.13;;;;;;;-5.75;68.79;100430.86;1724276;80;21183;-50
2020/12/10 03:34:53;;;;;;;15.17;2.77;;;;;;;-5.72;68.80;100434.00;1723906;80;21168;-52
2020/12/10 03:37:20;;;;;;;9.03;2.33;;;;;;;-5.69;68.81;100439.31;1724015;80;21367;-52
2020/12/10 03:39:48;;;;;;;8.40;2.00;;;;;;;-5.67;68.76;100434.11;1721308;80;21215;-49
2020/12/10 03:42:15;;;;;;;7.10;2.33;;;;;;;-5.66;68.69;100434.16;1727618;80;21187;-51
2020/12/10 03:44:42;;;;;;;10.53;2.33;;;;;;;-5.64;68.71;100436.83;1723511;80;21490;-53
2020/12/10 03:47:09;;;;;;;6.47;1.83;;;;;;;-5.62;68.66;100418.09;1726675;80;21319;-53
2020/12/10 03:49:37;;;;;;;10.60;2.53;;;;;;;-5.60;68.60;100423.83;1729209;80;21404;-50
2020/12/10 03:52:05;;;;;;;9.30;2.30;;;;;;;-5.60;68.50;100409.40;1722337;80;22048;-51
2020/12/10 03:54:32;;;;;;;8.33;2.90;;;;;;;-5.60;68.43;100409.40;1725261;80;21243;-50
2020/12/10 03:56:59;;;;;;;8.97;2.70;;;;;;;-5.62;68.36;100410.23;1723735;80;21548;-53
2020/12/10 03:59:26;;;;;;;16.90;2.97;;;;;;;-5.64;68.36;100411.49;1726285;80;21195;-53
2020/12/10 04:01:55;;;;;;;7.37;2.10;;;;;;;-5.68;68.34;100410.93;1724225;80;21230;-53
2020/12/10 04:04:23;;;;;;;6.73;2.33;;;;;;;-5.70;68.44;100391.67;1725869;80;21155;-49
2020/12/10 04:06:50;;;;;;;9.23;2.63;;;;;;;-5.70;68.48;100401.27;1722523;80;21207;-49
2020/12/10 04:09:17;;;;;;;5.97;2.10;;;;;;;-5.73;68.57;100385.02;1724828;80;22415;-52
2020/12/10 04:11:44;;;;;;;6.23;2.20;;;;;;;-5.72;68.62;100377.62;1727355;80;21216;-51
2020/12/10 04:14:12;;;;;;;8.13;2.23;;;;;;;-5.70;68.70;100380.29;1722222;80;21492;-51
2020/12/10 04:16:39;;;;;;;8.27;2.13;;;;;;;-5.70;68.83;100379.87;1723989;80;21218;-53
2020/12/10 04:19:07;;;;;;;8.07;2.37;;;;;;;-5.68;68.95;100378.57;1722629;80;21223;-50
2020/12/10 04:21:35;;;;;;;8.67;2.30;;;;;;;-5.64;69.04;100377.82;1730873;80;21494;-54
2020/12/10 04:24:03;;;;;;;9.13;2.23;;;;;;;-5.63;69.07;100380.91;1730811;80;21195;-53
2020/12/10 04:26:30;;;;;;;5.43;1.90;;;;;;;-5.60;69.13;100396.70;1732452;80;21197;-52
2020/12/10 04:28:57;;;;;;;5.93;2.33;;;;;;;-5.57;69.20;100382.38;1729195;80;21635;-51
2020/12/10 04:31:25;;;;;;;8.17;2.20;;;;;;;-5.55;69.22;100384.20;1734751;80;21191;-52
2020/12/10 04:33:53;;;;;;;9.07;2.20;;;;;;;-5.51;69.27;100386.45;1728101;80;21199;-53
2020/12/10 04:36:20;;;;;;;7.93;1.87;;;;;;;-5.48;69.24;100388.75;1732392;80;21520;-50
2020/12/10 04:38:48;;;;;;;5.97;2.03;;;;;;;-5.47;69.23;100386.59;1727147;80;21321;-51
2020/12/10 04:41:15;;;;;;;7.07;1.90;;;;;;;-5.46;69.29;100389.69;1730872;80;21750;-53
2020/12/10 04:43:42;;;;;;;6.70;1.87;;;;;;;-5.46;69.35;100378.30;1730162;80;21214;-52
2020/12/10 04:46:09;;;;;;;8.63;2.17;;;;;;;-5.44;69.33;100378.78;1731801;80;21199;-52
2020/12/10 04:48:37;;;;;;;6.63;1.80;;;;;;;-5.41;69.33;100385.42;1732973;80;21226;-50
2020/12/10 04:51:07;;;;;;;7.17;2.03;;;;;;;-5.39;69.33;100380.23;1732417;80;21449;-51
2020/12/10 04:53:34;;;;;;;7.70;2.70;;;;;;;-5.38;69.32;100372.40;1731143;80;21234;-50
2020/12/10 04:56:06;;;;;;;9.23;2.37;;;;;;;-5.36;69.33;100372.45;1734354;80;21195;-49
2020/12/10 04:58:34;;;;;;;8.50;1.87;;;;;;;-5.34;69.38;100383.41;1736501;80;21191;-51
2020/12/10 05:01:02;;;;;;;8.77;2.43;;;;;;;-5.30;69.35;100376.95;1677199;83;21668;-50
2020/12/10 05:03:30;;;;;;;5.43;2.57;;;;;;;-5.29;69.38;100383.97;1670135;83;21389;-54
2020/12/10 05:06:13;;;;;;;7.90;2.33;;;;;;;-5.27;69.34;100375.27;1685673;83;22310;-50
2020/12/10 05:08:41;;;;;;;6.70;2.77;;;;;;;-5.25;69.29;100366.13;1673458;83;21648;-52
2020/12/10 05:11:09;;;;;;;9.93;2.17;;;;;;;-5.26;69.26;100369.59;1667057;83;21198;-52
2020/12/10 05:13:37;;;;;;;6.73;2.27;;;;;;;-5.25;69.34;100371.38;1671945;83;21875;-51
2020/12/10 05:16:20;;;;;;;8.43;2.07;;;;;;;-5.23;69.41;100373.62;1680022;83;21535;-52
2020/12/10 05:18:47;;;;;;;9.97;2.97;;;;;;;-5.20;69.38;100375.02;1681225;83;21424;-53
2020/12/10 05:21:15;;;;;;;7.67;2.50;;;;;;;-5.17;69.37;100385.56;1698812;82;21246;-52
2020/12/10 05:23:43;;;;;;;5.83;1.67;;;;;;;-5.15;69.37;100386.08;1676693;83;21730;-53
2020/12/10 05:26:10;;;;;;;4.30;2.27;;;;;;;-5.11;69.45;100391.00;1697773;82;21145;-50
2020/12/10 05:28:48;;;;;;;6.00;2.40;;;;;;;-5.08;69.43;100388.42;1690591;83;21396;-51
2020/12/10 05:31:19;;;;;;;7.93;1.83;;;;;;;-5.04;69.46;100391.59;1685777;83;21233;-54
2020/12/10 05:33:59;;;;;;;5.83;2.13;;;;;;;-4.99;69.44;100397.41;1699808;82;21240;-51
2020/12/10 05:36:28;;;;;;;7.33;2.50;;;;;;;-4.98;69.37;100393.05;1673222;83;21143;-51
2020/12/10 05:41:46;;;;;;;8.53;2.60;;;;;;;-4.92;69.47;100384.00;1827399;75;25584;-53
2020/12/10 05:44:19;;;;;;;11.23;3.20;;;;;;;-4.94;69.47;100392.29;1779538;77;21674;-51
2020/12/10 05:46:51;;;;;;;7.40;2.60;;;;;;;-4.93;69.49;100388.78;1795676;77;21185;-52
2020/12/10 05:49:18;;;;;;;8.00;2.40;;;;;;;-4.93;69.51;100388.78;1793563;77;21509;-52
2020/12/10 05:51:47;;;;;;;7.60;2.87;;;;;;;-4.96;69.64;100392.25;1789865;77;21173;-52
2020/12/10 05:54:16;;;;;;;9.40;2.50;;;;;;;-4.96;69.68;100384.38;1800950;77;21421;-54
2020/12/10 05:56:58;;;;;;;9.17;2.47;;;;;;;-4.92;69.76;100384.00;1793085;77;21663;-51
2020/12/10 05:59:27;;;;;;;6.33;2.13;;;;;;;-4.89;69.78;100385.81;1792417;77;21190;-50
2020/12/10 06:02:01;;;;;;;8.73;3.27;;;;;;;-4.88;69.81;100381.92;1795360;77;21486;-50
2020/12/10 06:04:29;;;;;;;8.03;2.30;;;;;;;-4.84;69.86;100378.50;1794113;77;21171;-52
2020/12/10 06:07:00;;;;;;;9.10;2.63;;;;;;;-4.80;69.83;100376.84;1792978;77;21307;-53
2020/12/10 06:09:28;;;;;;;9.57;3.90;;;;;;;-4.81;69.85;100373.33;1796108;77;21192;-53
2020/12/10 06:12:06;;;;;;;10.87;3.60;;;;;;;-4.78;69.92;100368.58;1796222;77;21190;-54
2020/12/10 06:14:52;;;;;;;8.30;2.23;;;;;;;-4.76;69.96;100366.85;1794168;77;21190;-52
2020/12/10 06:17:20;;;;;;;11.80;3.47;;;;;;;-4.77;70.00;100366.42;1794502;77;21198;-50
2020/12/10 06:19:48;;;;;;;10.50;3.27;;;;;;;-4.76;70.04;100354.61;1790345;77;21171;-50
2020/12/10 06:22:28;;;;;;;8.77;2.43;;;;;;;-4.74;70.10;100356.84;1800164;77;21566;-50
2020/12/10 06:24:57;;;;;;;13.17;3.57;;;;;;;-4.71;70.21;100359.56;1791769;77;21126;-54
2020/12/10 06:27:33;;;;;;;7.77;2.53;;;;;;;-4.69;70.24;100365.74;1799174;77;21629;-52
2020/12/10 06:30:13;;;;;;;12.47;4.13;;;;;;;-4.66;70.22;100367.52;1794102;77;21517;-49
2020/12/10 06:32:50;;;;;;;8.87;2.70;;;;;;;-4.65;70.28;100366.25;1791995;77;21612;-52
2020/12/10 06:35:28;;;;;;;14.40;3.37;;;;;;;-4.61;70.36;100360.66;1791329;77;21079;-51
2020/12/10 06:37:56;;;;;;;9.00;2.50;;;;;;;-4.57;70.31;100363.36;1800314;77;23391;-52
2020/12/10 06:40:39;;;;;;;12.93;3.77;;;;;;;-4.52;70.27;100357.34;1796535;77;21552;-53
2020/12/10 06:43:07;;;;;;;10.63;3.00;;;;;;;-4.50;70.19;100347.72;1806949;77;21190;-52
2020/12/10 06:45:39;;;;;;;11.80;3.73;;;;;;;-4.53;70.23;100338.48;1809731;77;21379;-50
2020/12/10 06:48:19;;;;;;;8.97;3.63;;;;;;;-4.51;70.29;100344.66;1803143;77;21507;-51
2020/12/10 06:50:46;;;;;;;10.83;3.20;;;;;;;-4.49;70.36;100342.93;1800529;77;21198;-53
2020/12/10 06:53:21;;;;;;;9.73;3.27;;;;;;;-4.52;70.32;100341.15;1804403;77;21186;-51
2020/12/10 06:56:02;;;;;;;7.80;3.43;;;;;;;-4.53;70.40;100345.94;1802937;77;21625;-51
2020/12/10 06:58:42;;;;;;;10.17;3.97;;;;;;;-4.49;70.46;100346.45;1804772;77;21224;-52
2020/12/10 07:01:37;;;;;;;6.70;2.93;;;;;;;-4.46;70.48;100349.58;1804378;77;21221;-49
2020/12/10 07:04:30;;;;;;;9.57;2.40;;;;;;;-4.44;70.51;100345.25;1803403;77;21430;-49
2020/12/10 07:07:20;;;;;;;12.87;3.97;;;;;;;-4.43;70.50;100347.03;1802770;77;21614;-50
2020/12/10 07:10:00;;;;;;;5.93;2.53;;;;;;;-4.42;70.52;100350.97;1810056;77;21095;-53
2020/12/10 07:12:40;;;;;;;9.70;3.17;;;;;;;-4.40;70.58;100347.07;1802598;77;21236;-51
2020/12/10 07:15:22;;;;;;;6.87;2.40;;;;;;;-4.37;70.61;100345.83;1805142;77;21190;-51
2020/12/10 07:17:47;;;;;;;7.80;3.37;;;;;;;-4.35;70.64;100342.39;1801246;77;21828;-53
2020/12/10 07:20:14;;;;;;;12.83;3.50;;;;;;;-4.32;70.66;100332.34;1800459;77;22563;-50
2020/12/10 07:22:41;;;;;;;10.77;3.30;;;;;;;-4.30;70.63;100339.84;1809495;77;21142;-57
2020/12/10 07:25:09;;;;;;;10.53;4.47;;;;;;;-4.27;70.60;100333.34;1799336;77;21396;-50
2020/12/10 07:27:36;;;;;;;9.80;3.80;;;;;;;-4.27;70.62;100334.66;1811017;77;21217;-50
2020/12/10 07:30:15;;;;;;;11.27;3.60;;;;;;;-4.23;70.73;100333.84;1803489;77;21380;-50
2020/12/10 07:32:43;;;;;;;13.97;3.33;;;;;;;-4.15;70.74;100332.69;1805585;77;21185;-51
2020/12/10 07:35:11;;;;;;;9.27;3.33;;;;;;;-4.10;70.61;100331.94;1806068;77;21386;-53
2020/12/10 07:37:39;;;;;;;12.27;3.87;;;;;;;-4.06;70.55;100328.49;1813482;77;21239;-51
2020/12/10 07:40:16;;;;;;;10.70;4.37;;;;;;;-4.03;70.52;100319.36;1800575;77;21155;-50
2020/12/10 07:42:44;;;;;;;8.30;3.97;;;;;;;-3.98;70.50;100328.64;1792743;77;22477;-55
2020/12/10 07:45:15;;;;;;;10.30;3.80;;;;;;;-3.97;70.47;100327.36;1802563;77;21187;-50
2020/12/10 07:47:42;;;;;;;12.60;4.83;;;;;;;-3.95;70.49;100323.45;1798217;77;21162;-51
2020/12/10 07:50:23;;;;;;;14.23;4.87;;;;;;;-3.94;70.46;100326.11;1798994;77;21178;-51
2020/12/10 07:52:55;;;;;;;9.80;3.77;;;;;;;-3.95;70.53;100320.81;1808464;77;21154;-52
2020/12/10 07:55:27;;;;;;;10.13;4.03;;;;;;;-3.95;70.59;100325.66;1791920;77;21278;-49
2020/12/10 07:58:08;;;;;;;10.47;4.37;;;;;;;-3.96;70.60;100321.67;1793405;77;21173;-53
2020/12/10 08:00:37;;;;;;;9.80;4.30;;;;;;;-3.97;70.75;100323.41;1793388;77;21174;-54
2020/12/10 08:03:19;;;;;;;13.57;5.40;;;;;;;-3.94;70.76;100316.91;1789836;77;21229;-55
2020/12/10 08:06:10;;;;;;;12.10;5.25;;;;;;;-3.92;70.74;100317.83;1789582;77;21178;-54
2020/12/10 08:08:47;;;;;;;12.47;3.70;;;;;;;-3.88;70.89;100318.33;1799021;77;21204;-51
2020/12/10 08:11:20;;;;;;;11.17;5.13;;;;;;;-3.83;70.86;100310.54;1796400;77;21210;-50
2020/12/10 08:14:03;;;;;;;20.35;5.62;;;;;;;-3.79;70.74;100299.62;1790844;77;21173;-53
2020/12/10 08:16:42;;;;;;;12.60;4.90;;;;;;;-3.82;70.79;100293.87;1746422;80;21203;-49
2020/12/10 08:19:15;;;;;;;13.10;5.83;;;;;;;-3.79;70.83;100294.36;1736829;79;21261;-53
2020/12/10 08:21:45;;;;;;;19.77;6.10;;;;;;;-3.73;70.76;100297.09;1735633;80;21204;-54
2020/12/10 08:24:13;;;;;;;12.33;5.13;;;;;;;-3.71;70.66;100299.33;1739453;79;21210;-51
2020/12/10 08:26:41;;;;;;;14.33;5.33;;;;;;;-3.73;70.53;100286.56;1744095;79;21167;-53
2020/12/10 08:29:16;;;;;;;15.33;5.40;;;;;;;-3.72;70.60;100280.02;1793076;77;21203;-52
2020/12/10 08:31:43;;;;;;;13.50;4.50;;;;;;;-3.68;70.45;100283.18;1790999;77;21167;-49
2020/12/10 08:34:18;;;;;;;16.70;6.07;;;;;;;-3.67;70.42;100286.27;1794980;77;21585;-51
2020/12/10 08:39:10;;;;;;;17.37;5.80;;;;;;;-3.56;70.43;100287.31;1792572;78;27003;-52
2020/12/10 08:41:37;;;;;;;14.63;4.80;;;;;;;-3.57;70.32;100293.43;1766603;79;21057;-51
2020/12/10 08:44:06;;;;;;;14.13;5.77;;;;;;;-3.53;70.17;100291.75;1766781;80;21080;-52
2020/12/10 08:46:35;;;;;;;15.63;5.20;;;;;;;-3.52;70.12;100287.84;1708326;81;21204;-50
2020/12/10 08:49:19;;;;;;;12.00;4.13;;;;;;;-3.53;70.07;100286.06;1708553;81;21239;-53
2020/12/10 08:51:50;;;;;;;13.23;5.77;;;;;;;-3.53;70.01;100291.33;1705413;81;21183;-53
2020/12/10 08:54:17;;;;;;;18.77;6.10;;;;;;;-3.50;69.98;100294.45;1707578;82;21431;-50
2020/12/10 08:56:44;;;;;;;13.43;6.10;;;;;;;-3.50;69.90;100283.92;1709916;82;21348;-54
2020/12/10 08:59:12;;;;;;;19.10;6.07;;;;;;;-3.51;69.87;100280.83;1714905;81;21231;-51
2020/12/10 09:01:47;;;;;;;10.77;4.47;;;;;;;-3.51;69.91;100276.88;1732686;81;21053;-50
2020/12/10 09:04:23;;;;;;;14.43;5.03;;;;;;;-3.44;69.90;100270.85;1869664;74;27002;-52
2020/12/10 09:06:50;;;;;;;15.10;4.13;;;;;;;-3.45;69.61;100277.86;1846287;75;21175;-54
2020/12/10 09:09:17;;;;;;;13.00;4.57;;;;;;;-3.46;69.64;100278.72;1814960;77;21331;-50
2020/12/10 09:11:48;;;;;;;14.50;6.17;;;;;;;-3.46;69.59;100279.14;1817698;77;21473;-53
2020/12/10 09:14:15;;;;;;;14.03;5.30;;;;;;;-3.47;69.48;100278.69;1822390;77;21178;-55
2020/12/10 09:16:43;;;;;;;19.27;6.07;;;;;;;-3.48;69.40;100269.91;1818435;77;21160;-55
2020/12/10 09:19:10;;;;;;;18.13;6.27;;;;;;;-3.53;69.28;100266.75;1823913;77;21182;-52
2020/12/10 09:21:37;;;;;;;13.90;4.57;;;;;;;-3.57;69.36;100260.97;1825391;77;21745;-53
2020/12/10 09:24:04;;;;;;;16.07;5.70;;;;;;;-3.60;69.43;100263.14;1820326;77;21174;-52
2020/12/10 09:26:31;;;;;;;16.00;6.23;;;;;;;-3.63;69.37;100254.30;1817551;77;21916;-54
2020/12/10 09:29:01;;;;;;;20.97;7.00;;;;;;;-3.66;69.43;100248.58;1817049;77;21206;-54
2020/12/10 09:31:28;;;;;;;15.70;5.93;;;;;;;-3.66;69.41;100256.91;1817343;77;21206;-53
2020/12/10 09:33:56;;;;;;;16.83;5.73;;;;;;;-3.71;69.41;100257.23;1821492;77;22023;-53
2020/12/10 09:36:23;;;;;;;19.00;6.40;;;;;;;-3.71;69.55;100270.39;1818134;77;21989;-52
2020/12/10 09:38:53;;;;;;;18.17;6.40;;;;;;;-3.70;69.42;100269.53;1816654;77;21597;-52
2020/12/10 09:41:22;;;;;;;18.23;6.50;;;;;;;-3.71;69.52;100263.38;1818074;77;21159;-51
2020/12/10 09:43:50;;;;;;;20.60;6.70;;;;;;;-3.70;69.60;100270.84;1820096;77;21215;-51
2020/12/10 09:46:17;;;;;;;19.33;7.27;;;;;;;-3.71;69.66;100273.91;1814032;77;21210;-51
2020/12/10 09:48:45;;;;;;;24.87;7.97;;;;;;;-3.67;69.62;100269.59;1817432;77;21179;-50
2020/12/10 09:51:12;;;;;;;23.40;7.77;;;;;;;-3.66;69.72;100268.74;1816544;77;21226;-52
2020/12/10 09:53:46;;;;;;;18.37;5.97;;;;;;;-3.65;69.76;100267.85;1813311;77;21060;-53
2020/12/10 09:58:44;;;;;;;20.13;6.70;;;;;;;-3.65;69.82;100259.95;1814489;77;21470;-54
2020/12/10 10:01:11;;;;;;;16.87;5.40;;;;;;;-3.64;69.85;100252.52;1815064;77;21206;-53
2020/12/10 10:03:39;;;;;;;16.73;6.30;;;;;;;-3.66;69.90;100251.64;1816653;77;21629;-54
2020/12/10 10:06:11;;;;;;;21.77;7.53;;;;;;;-3.67;70.03;100248.55;1815801;77;21107;-53
2020/12/10 10:08:38;;;;;;;17.30;7.03;;;;;;;-3.68;69.99;100241.52;1787016;77;21044;-54
2020/12/10 10:11:05;;;;;;;21.30;7.00;;;;;;;-3.69;70.07;100247.63;1816028;77;22864;-54
2020/12/10 10:13:33;;;;;;;17.03;6.07;;;;;;;-3.69;70.22;100254.20;1817683;77;21178;-52
2020/12/10 10:16:02;;;;;;;18.80;7.20;;;;;;;-3.67;70.24;100249.86;1823338;77;21160;-52
2020/12/10 10:18:29;;;;;;;11.73;5.47;;;;;;;-3.63;70.29;100245.09;1819516;77;21971;-50
2020/12/10 10:20:56;;;;;;;13.70;6.60;;;;;;;-3.59;70.29;100244.30;1818909;77;21201;-52
2020/12/10 10:23:25;;;;;;;20.27;7.70;;;;;;;-3.56;70.30;100241.27;1813567;77;21360;-54
2020/12/10 10:25:53;;;;;;;15.03;5.40;;;;;;;-3.53;70.29;100236.48;1819201;77;21184;-54
2020/12/10 10:28:20;;;;;;;18.07;6.70;;;;;;;-3.53;70.32;100225.97;1811602;77;21261;-52
2020/12/10 10:30:48;;;;;;;16.00;6.57;;;;;;;-3.56;70.38;100222.84;1821320;77;21083;-52
2020/12/10 10:33:21;;;;;;;17.80;6.47;;;;;;;-3.55;70.49;100219.78;1818626;77;21577;-53
2020/12/10 10:35:44;;;;;;;15.47;6.80;;;;;;;-3.56;70.51;100216.27;1821051;77;21847;-52
2020/12/10 10:38:11;;;;;;;15.07;6.10;;;;;;;-3.55;70.59;100217.16;1764245;77;21497;-51
2020/12/10 10:40:39;;;;;;;16.30;6.93;;;;;;;-3.53;70.63;100215.01;1784532;78;21162;-51
2020/12/10 10:43:06;;;;;;;13.50;5.13;;;;;;;-3.55;70.70;100218.04;1783397;78;21784;-52
2020/12/10 10:45:34;;;;;;;12.83;5.43;;;;;;;-3.54;70.81;100220.24;1772437;78;21200;-55
2020/12/10 10:48:02;;;;;;;17.73;7.47;;;;;;;-3.52;70.89;100217.21;1777410;78;21365;-53
2020/12/10 10:50:29;;;;;;;15.93;5.97;;;;;;;-3.47;70.94;100228.68;1774073;78;21183;-52
2020/12/10 10:52:56;;;;;;;16.13;6.47;;;;;;;-3.45;70.96;100225.65;1783238;78;21220;-52
2020/12/10 10:55:23;;;;;;;18.10;6.80;;;;;;;-3.45;70.91;100224.34;1773240;78;21667;-52
2020/12/10 10:57:50;;;;;;;16.13;6.83;;;;;;;-3.43;70.97;100225.25;1774894;78;21212;-53
2020/12/10 11:00:17;;;;;;;20.23;6.33;;;;;;;-3.40;70.98;100231.00;1779272;78;21631;-54
2020/12/10 11:02:45;;;;;;;17.40;6.60;;;;;;;-3.42;70.94;100230.97;1773400;78;21226;-51
2020/12/10 11:05:12;;;;;;;13.33;6.83;;;;;;;-3.42;71.02;100233.60;1772289;78;21240;-54
2020/12/10 11:07:43;;;;;;;15.70;7.73;;;;;;;-3.41;71.09;100234.48;1778310;78;21706;-51
2020/12/10 11:10:12;;;;;;;15.83;5.63;;;;;;;-3.37;71.14;100225.33;1780357;78;21603;-53
2020/12/10 11:12:41;;;;;;;17.20;7.47;;;;;;;-3.35;71.14;100214.41;1779278;78;21297;-51
2020/12/10 11:15:08;;;;;;;20.13;6.60;;;;;;;-3.33;71.11;100216.63;1793082;78;20992;-52
2020/12/10 11:17:36;;;;;;;19.07;7.10;;;;;;;-3.33;71.17;100223.22;1790466;78;21564;-52
2020/12/10 11:20:04;;;;;;;19.70;7.20;;;;;;;-3.36;71.24;100217.89;1784746;78;21183;-54
2020/12/10 11:22:33;;;;;;;24.23;8.40;;;;;;;-3.37;71.37;100218.75;1772270;78;21199;-52
2020/12/10 11:25:02;;;;;;;19.77;6.80;;;;;;;-3.38;71.62;100203.81;1789859;78;21718;-54
2020/12/10 11:27:30;;;;;;;26.20;9.13;;;;;;;-3.36;71.69;100202.53;1746504;80;21130;-52
2020/12/10 11:29:58;;;;;;;22.53;8.67;;;;;;;-3.32;71.79;100209.63;1787533;78;22504;-52
2020/12/10 11:32:27;;;;;;;18.00;8.00;;;;;;;-3.28;71.85;100204.84;1751346;80;21299;-51
2020/12/10 11:34:54;;;;;;;17.40;7.20;;;;;;;-3.28;71.96;100198.26;1790873;78;21449;-52
2020/12/10 11:37:22;;;;;;;21.97;9.07;;;;;;;-3.28;72.12;100196.94;1755911;80;22187;-53